Wawa Airport
CYXZ : now visible

Airfield :











YOU CAN JOIN US ON...

 
LOGIN :

Register | Disclaimer

   EN    FR    IT 

 









Legend :    VFR   Marginal VFR   IFR   Intensive IFR   Very Intensive IFR
Visi :
Ceiling :
>= 8 km
>= 3000ft
5 to 8 km
1000 to 3000 ft
1500m to 5 km
500 to 1000 ft
800 to 1500m
200 to 500 ft
< 800m
< 200 ft
Symbols :   Thunderstorms  Fog  Heavy snow  Heavy precipitations  Wind > 20 kt






- Airport Elevation : 942 ft
- IATA code : YXZ


CYXZ - Wawa

CURRENT METAR :
  • 281800Z 16003KT 2 1/2SM -RA BR BKN004 OVC095 17/17 A2981 RMK ST7AS1 SLP099 DENSITY ALT 1600FT

EXPIRED METARs :
  • 281700Z 00000KT 1 1/2SM -RA BR OVC002 17/17 A2982 RMK ST8 PRESFR SLP101 DENSITY ALT 1600FT
  • 281611Z 31003KT 2SM -RA BR OVC002 17/17 A2983 RMK ST8 PRESFR SLP105 DENSITY ALT 1600FT
  • 281600Z VRB02KT 3SM -RA BR OVC005 18/18 A2984 RMK ST8 SLP110 DENSITY ALT 1600FT
  • 281553Z 28002KT 6SM -RA BR SCT003 OVC009 18/18 A2984 RMK SF3ST5 SLP110 DENSITY ALT 1600FT

TAF AMD TAF CYXZ
Valid from the 28 at 17:00 until the 29 at 00:00 UTC


281743Z 2817/2824 VRB03KT 6SM -RA BR OVC009
TEMPO 2817/2824 1SM -RA BR OVC002 RMK NXT FCST BY 282000Z
CZYZ FIR / North America



MET'MAP, your aeronautical weather chart ! - Copyright ORBIFLY December 2007 - Disclaimer

ORBIFLY MET'MAP TEAM :

Programming & Development : Alexandra Zaïnal
Concept & original design : Baudouin d'Aumeries
Assistance for programming : Marc-Olivier Méhu
Technical & hardware support : Manuel Goepfert

Contact : metmap@orbifly.com




SOURCES & CREDITS :

   NOAA       Earth
Advisory